createdAt,value
2023-05-09T00:01:07.466Z,101755.47
2023-05-09T00:04:11.486Z,101753.34
2023-05-09T00:07:14.143Z,101752.06
2023-05-09T00:10:16.789Z,101748.72
2023-05-09T00:13:19.559Z,101749.88
2023-05-09T00:16:24.172Z,101745.41
2023-05-09T00:19:28.252Z,101741.91
2023-05-09T00:22:30.835Z,101737.19
2023-05-09T00:25:33.608Z,101736.19
2023-05-09T00:28:36.233Z,101740.31
2023-05-09T00:31:38.804Z,101747.41
2023-05-09T00:34:42.843Z,101744.72
2023-05-09T00:37:45.424Z,101742.63
2023-05-09T00:40:48.005Z,101739.47
2023-05-09T00:43:50.666Z,101735.78
2023-05-09T00:46:53.300Z,101733.03
2023-05-09T00:49:58.430Z,101726.09
2023-05-09T00:53:01.146Z,101720.81
2023-05-09T00:56:04.761Z,101715.34
2023-05-09T00:59:07.440Z,101705.72
2023-05-09T01:02:10.085Z,101695.44
2023-05-09T01:05:14.549Z,101696.00
2023-05-09T01:08:29.912Z,101691.63
2023-05-09T01:11:40.127Z,101687.63
2023-05-09T01:14:52.405Z,101679.25
2023-05-09T01:17:58.773Z,101678.72
2023-05-09T01:21:08.800Z,101677.09
2023-05-09T01:24:26.284Z,101676.97
2023-05-09T01:27:44.432Z,101675.41
2023-05-09T01:30:52.642Z,101663.41
2023-05-09T01:33:58.536Z,101658.41
2023-05-09T01:37:02.503Z,101660.16
2023-05-09T01:40:09.967Z,101667.44
2023-05-09T01:43:15.594Z,101657.56
2023-05-09T01:46:21.796Z,101652.16
2023-05-09T01:49:26.123Z,101652.31
2023-05-09T01:52:30.209Z,101659.06
2023-05-09T01:55:35.237Z,101651.41
2023-05-09T01:58:39.202Z,101652.31
2023-05-09T02:01:43.775Z,101653.69
2023-05-09T02:04:47.963Z,101665.66
2023-05-09T02:07:50.955Z,101668.03
2023-05-09T02:10:54.045Z,101665.97
2023-05-09T02:13:56.691Z,101660.84
2023-05-09T02:17:06.175Z,101650.22
2023-05-09T02:20:11.442Z,101654.19
2023-05-09T02:23:14.353Z,101643.38
2023-05-09T02:26:17.126Z,101640.22
2023-05-09T02:29:22.921Z,101636.91
2023-05-09T02:32:31.636Z,101634.50
2023-05-09T02:35:35.180Z,101638.03
2023-05-09T02:38:38.194Z,101640.06
2023-05-09T02:41:40.870Z,101638.31
2023-05-09T02:44:43.506Z,101641.31
2023-05-09T02:47:47.579Z,101631.03
2023-05-09T02:50:50.203Z,101629.41
2023-05-09T02:53:52.781Z,101628.38
2023-05-09T02:56:55.380Z,101632.22
2023-05-09T02:59:57.965Z,101635.00
2023-05-09T03:03:01.973Z,101634.13
2023-05-09T03:06:04.949Z,101625.22
2023-05-09T03:09:08.201Z,101624.47
2023-05-09T03:12:10.827Z,101626.22
2023-05-09T03:15:13.820Z,101614.97
2023-05-09T03:18:18.819Z,101617.63
2023-05-09T03:21:21.442Z,101614.34
2023-05-09T03:24:24.153Z,101614.41
2023-05-09T03:27:27.130Z,101613.19
2023-05-09T03:30:29.869Z,101610.72
2023-05-09T03:33:33.827Z,101604.97
2023-05-09T03:36:36.450Z,101602.22
2023-05-09T03:39:39.026Z,101603.69
2023-05-09T03:42:41.628Z,101599.59
2023-05-09T03:45:44.580Z,101593.38
2023-05-09T03:48:48.608Z,101591.69
2023-05-09T03:51:51.279Z,101600.53
2023-05-09T03:54:53.857Z,101595.97
2023-05-09T03:57:56.876Z,101585.13
2023-05-09T04:00:59.565Z,101578.81
2023-05-09T04:04:03.709Z,101578.31
2023-05-09T04:07:06.717Z,101574.41
2023-05-09T04:10:10.534Z,101565.97
2023-05-09T04:13:13.199Z,101572.00
2023-05-09T04:16:16.002Z,101575.66
2023-05-09T04:19:20.102Z,101579.69
2023-05-09T04:22:22.712Z,101579.16
2023-05-09T04:25:25.360Z,101581.16
2023-05-09T04:28:27.922Z,101586.38
2023-05-09T04:31:31.330Z,101583.47
2023-05-09T04:34:35.399Z,101584.22
2023-05-09T04:37:38.014Z,101580.47
2023-05-09T04:40:40.619Z,101577.75
2023-05-09T04:43:43.339Z,101573.16
2023-05-09T04:46:46.254Z,101572.19
2023-05-09T04:49:50.305Z,101564.16
2023-05-09T04:52:52.877Z,101562.84
2023-05-09T04:55:56.181Z,101563.72
2023-05-09T04:58:58.812Z,101561.94
2023-05-09T05:02:01.441Z,101550.25
2023-05-09T05:05:11.545Z,101562.66
2023-05-09T05:08:15.138Z,101550.94
2023-05-09T05:11:18.155Z,101548.28
2023-05-09T05:14:20.735Z,101542.88
2023-05-09T05:17:24.704Z,101537.25
2023-05-09T05:20:28.668Z,101528.13
2023-05-09T05:23:31.267Z,101527.28
2023-05-09T05:26:33.882Z,101520.50
2023-05-09T05:29:36.457Z,101520.81
2023-05-09T05:32:39.158Z,101518.69
2023-05-09T05:35:43.096Z,101507.63
2023-05-09T05:38:45.704Z,101501.91
2023-05-09T05:41:48.281Z,101499.19
2023-05-09T05:44:50.869Z,101497.16
2023-05-09T05:47:54.356Z,101487.38
2023-05-09T05:50:58.529Z,101486.84
2023-05-09T05:54:01.284Z,101481.59
2023-05-09T05:57:03.925Z,101484.19
2023-05-09T06:00:10.393Z,101486.63
2023-05-09T06:03:14.354Z,101486.69
2023-05-09T06:06:18.500Z,101492.25
2023-05-09T06:09:21.060Z,101485.19
2023-05-09T06:12:23.657Z,101487.06
2023-05-09T06:15:26.373Z,101481.47
2023-05-09T06:18:28.994Z,101477.09
2023-05-09T06:21:34.100Z,101485.13
2023-05-09T06:24:36.778Z,101481.31
2023-05-09T06:27:39.399Z,101485.63
2023-05-09T06:30:41.982Z,101484.81
2023-05-09T06:33:44.588Z,101483.50
2023-05-09T06:36:48.572Z,101471.25
2023-05-09T06:39:51.356Z,101478.97
2023-05-09T06:42:53.990Z,101469.81
2023-05-09T06:45:56.598Z,101473.41
2023-05-09T06:49:01.823Z,101472.56
2023-05-09T06:52:06.391Z,101468.38
2023-05-09T06:55:10.748Z,101457.50
2023-05-09T06:58:13.522Z,101447.63
2023-05-09T07:01:16.712Z,101439.56
2023-05-09T07:04:19.388Z,101436.81
2023-05-09T07:07:23.377Z,101436.53
2023-05-09T07:10:26.636Z,101432.13
2023-05-09T07:13:29.463Z,101428.13
2023-05-09T07:16:32.156Z,101426.59
2023-05-09T07:19:34.816Z,101426.50
2023-05-09T07:22:39.074Z,101426.97
2023-05-09T07:25:41.719Z,101419.47
2023-05-09T07:28:44.467Z,101417.78
2023-05-09T07:31:47.302Z,101411.38
2023-05-09T07:34:49.931Z,101418.81
2023-05-09T07:37:53.877Z,101410.56
2023-05-09T07:40:56.669Z,101403.91
2023-05-09T07:43:59.223Z,101396.06
2023-05-09T07:47:02.541Z,101386.91
2023-05-09T07:50:05.790Z,101386.75
2023-05-09T07:53:09.874Z,101378.13
2023-05-09T07:56:13.330Z,101374.97
2023-05-09T07:59:15.939Z,101366.44
2023-05-09T08:02:18.744Z,101357.28
2023-05-09T08:05:21.454Z,101361.53
2023-05-09T08:08:25.432Z,101364.09
2023-05-09T08:11:28.064Z,101357.19
2023-05-09T08:14:30.752Z,101351.78
2023-05-09T08:17:33.403Z,101348.41
2023-05-09T08:20:36.198Z,101342.47
2023-05-09T08:23:41.157Z,101341.06
2023-05-09T08:26:44.080Z,101340.03
2023-05-09T08:29:46.691Z,101341.91
2023-05-09T08:32:49.304Z,101335.03
2023-05-09T08:35:52.215Z,101316.44
2023-05-09T08:38:56.139Z,101327.72
2023-05-09T08:42:00.645Z,101329.38
2023-05-09T08:45:08.073Z,101327.59
2023-05-09T08:48:11.680Z,101328.31
2023-05-09T08:51:15.880Z,101312.69
2023-05-09T08:54:22.799Z,101311.78
2023-05-09T08:57:25.776Z,101305.13
2023-05-09T09:00:29.040Z,101300.66
2023-05-09T09:03:31.990Z,101304.59
2023-05-09T09:06:35.315Z,101305.97
2023-05-09T09:09:43.442Z,101300.38
2023-05-09T09:12:48.086Z,101293.47
2023-05-09T09:15:55.925Z,101292.31
2023-05-09T09:18:59.743Z,101285.94
2023-05-09T09:22:05.556Z,101286.00
2023-05-09T09:25:10.337Z,101287.44
2023-05-09T09:28:13.453Z,101277.03
2023-05-09T09:31:23.558Z,101270.84
2023-05-09T09:34:26.773Z,101268.16
2023-05-09T09:37:29.613Z,101277.25
2023-05-09T09:40:33.589Z,101278.03
2023-05-09T09:43:36.172Z,101262.84
2023-05-09T09:46:43.356Z,101259.81
2023-05-09T09:49:48.151Z,101258.75
2023-05-09T09:52:51.540Z,101255.22
2023-05-09T09:55:55.904Z,101252.47
2023-05-09T09:59:10.557Z,101248.34
2023-05-09T10:02:13.176Z,101240.06
2023-05-09T10:05:20.449Z,101236.94
2023-05-09T10:08:23.044Z,101235.78
2023-05-09T10:11:27.266Z,101229.22
2023-05-09T10:14:34.972Z,101243.00
2023-05-09T10:17:38.319Z,101229.09
2023-05-09T10:20:42.188Z,101224.13
2023-05-09T10:23:49.530Z,101226.88
2023-05-09T10:26:57.545Z,101225.25
2023-05-09T10:30:05.720Z,101224.50
2023-05-09T10:33:10.448Z,101212.78
2023-05-09T10:36:14.088Z,101196.75
2023-05-09T10:39:17.129Z,101195.03
2023-05-09T10:42:21.679Z,101190.25
2023-05-09T10:45:24.692Z,101187.66
2023-05-09T10:48:27.554Z,101182.47
2023-05-09T10:51:30.352Z,101182.91
2023-05-09T10:54:33.610Z,101169.75
2023-05-09T10:57:40.441Z,101158.78
2023-05-09T11:00:43.713Z,101160.25
2023-05-09T11:03:56.814Z,101147.81
2023-05-09T11:07:00.430Z,101140.44
2023-05-09T11:10:10.495Z,101133.50
2023-05-09T11:13:14.553Z,101138.44
2023-05-09T11:16:17.187Z,101139.44
2023-05-09T11:19:36.248Z,101134.88
2023-05-09T11:22:41.303Z,101119.81
2023-05-09T11:25:46.853Z,101108.63
2023-05-09T11:28:56.703Z,101115.06
2023-05-09T11:32:06.461Z,101117.47
2023-05-09T11:35:10.916Z,101097.94
2023-05-09T11:38:22.144Z,101078.84
2023-05-09T11:41:24.898Z,101091.50
2023-05-09T11:44:30.803Z,101086.47
2023-05-09T11:47:33.458Z,101085.72
2023-05-09T11:50:36.093Z,101072.09
2023-05-09T11:53:46.765Z,101058.53
2023-05-09T11:56:49.441Z,101057.28
2023-05-09T11:59:53.939Z,101054.69
2023-05-09T12:02:56.783Z,101052.81
2023-05-09T12:06:00.001Z,101044.13
2023-05-09T12:09:02.710Z,101035.41
2023-05-09T12:12:10.821Z,101038.50
2023-05-09T12:15:15.618Z,101033.44
2023-05-09T12:18:18.372Z,101025.47
2023-05-09T12:21:21.772Z,101025.56
2023-05-09T12:24:26.495Z,101026.59
2023-05-09T12:27:29.503Z,101008.78
2023-05-09T12:30:33.649Z,101022.25
2023-05-09T12:33:39.164Z,101020.84
2023-05-09T12:36:50.384Z,101020.84
2023-05-09T12:40:04.144Z,101015.25
2023-05-09T12:43:08.185Z,101011.94
2023-05-09T12:46:12.174Z,101011.09
2023-05-09T12:49:21.146Z,101012.72
2023-05-09T12:52:23.810Z,101013.47
2023-05-09T12:55:26.402Z,101009.00
2023-05-09T12:58:31.053Z,101006.94
2023-05-09T13:01:37.049Z,101014.47
2023-05-09T13:04:39.625Z,101007.56
2023-05-09T13:07:43.210Z,101000.66
2023-05-09T13:10:46.019Z,100995.22
2023-05-09T13:13:48.633Z,100999.34
2023-05-09T13:16:52.625Z,100986.34
2023-05-09T13:19:55.446Z,100985.03
2023-05-09T13:22:58.031Z,100975.88
2023-05-09T13:26:00.654Z,100976.03
2023-05-09T13:29:03.299Z,100970.28
2023-05-09T13:32:07.419Z,100968.75
2023-05-09T13:35:10.227Z,100961.44
2023-05-09T13:38:13.061Z,100956.59
2023-05-09T13:41:20.152Z,100953.06
2023-05-09T13:44:23.633Z,100952.69
2023-05-09T13:47:27.700Z,100939.56
2023-05-09T13:50:30.330Z,100934.97
2023-05-09T13:53:32.936Z,100947.59
2023-05-09T13:56:35.527Z,100934.75
2023-05-09T13:59:38.316Z,100929.84
2023-05-09T14:02:42.294Z,100935.75
2023-05-09T14:05:44.942Z,100927.66
2023-05-09T14:08:47.559Z,100925.72
2023-05-09T14:11:51.598Z,100929.00
2023-05-09T14:14:54.213Z,100923.09
2023-05-09T14:17:58.253Z,100933.72
2023-05-09T14:21:01.011Z,100914.13
2023-05-09T14:24:03.592Z,100904.94
2023-05-09T14:27:06.225Z,100899.13
2023-05-09T14:30:10.253Z,100889.19
2023-05-09T14:33:14.443Z,100885.78
2023-05-09T14:36:17.474Z,100886.50
2023-05-09T14:39:20.712Z,100881.06
2023-05-09T14:42:23.271Z,100869.41
2023-05-09T14:45:26.403Z,100864.38
2023-05-09T14:48:30.377Z,100859.84
2023-05-09T14:51:33.300Z,100865.41
2023-05-09T14:54:36.335Z,100858.41
2023-05-09T14:57:38.958Z,100847.31
2023-05-09T15:00:41.781Z,100846.19
2023-05-09T15:03:47.782Z,100842.78
2023-05-09T15:06:50.561Z,100833.09
2023-05-09T15:09:53.165Z,100834.09
2023-05-09T15:12:56.965Z,100826.81
2023-05-09T15:15:59.740Z,100835.09
2023-05-09T15:19:05.741Z,100833.41
2023-05-09T15:22:09.082Z,100823.09
2023-05-09T15:25:12.147Z,100809.41
2023-05-09T15:28:14.766Z,100824.34
2023-05-09T15:31:21.354Z,100821.66
2023-05-09T15:34:25.530Z,100817.34
2023-05-09T15:37:28.165Z,100812.81
2023-05-09T15:40:30.903Z,100801.44
2023-05-09T15:43:33.841Z,100804.84
2023-05-09T15:46:36.530Z,100797.13
2023-05-09T15:49:40.835Z,100796.81
2023-05-09T15:52:43.429Z,100791.38
2023-05-09T15:55:46.266Z,100785.81
2023-05-09T15:58:48.862Z,100779.94
2023-05-09T16:01:51.473Z,100781.56
2023-05-09T16:04:55.464Z,100768.06
2023-05-09T16:07:58.057Z,100771.38
2023-05-09T16:11:01.825Z,100765.53
2023-05-09T16:14:05.592Z,100760.50
2023-05-09T16:17:08.264Z,100755.41
2023-05-09T16:20:14.275Z,100754.22
2023-05-09T16:23:17.436Z,100750.25
2023-05-09T16:26:20.056Z,100744.56
2023-05-09T16:29:23.316Z,100751.59
2023-05-09T16:32:26.059Z,100744.09
2023-05-09T16:35:30.147Z,100744.59
2023-05-09T16:38:32.761Z,100741.25
2023-05-09T16:41:35.513Z,100731.06
2023-05-09T16:44:38.144Z,100739.88
2023-05-09T16:47:40.828Z,100725.22
2023-05-09T16:50:45.374Z,100729.31
2023-05-09T16:53:47.973Z,100727.06
2023-05-09T16:56:50.546Z,100711.72
2023-05-09T16:59:53.342Z,100704.72
2023-05-09T17:02:55.964Z,100713.34
2023-05-09T17:05:59.982Z,100708.28
2023-05-09T17:09:02.697Z,100709.72
2023-05-09T17:12:05.785Z,100706.38
2023-05-09T17:15:10.775Z,100709.66
2023-05-09T17:18:17.037Z,100701.94
2023-05-09T17:21:23.349Z,100699.16
2023-05-09T17:24:25.925Z,100702.13
2023-05-09T17:27:28.604Z,100700.94
2023-05-09T17:30:31.328Z,100695.91
2023-05-09T17:33:33.964Z,100681.34
2023-05-09T17:36:37.900Z,100684.06
2023-05-09T17:39:42.141Z,100691.53
2023-05-09T17:42:44.881Z,100689.63
2023-05-09T17:45:47.550Z,100691.97
2023-05-09T17:48:50.330Z,100691.72
2023-05-09T17:51:56.242Z,100694.03
2023-05-09T17:54:58.835Z,100691.75
2023-05-09T17:58:01.423Z,100691.00
2023-05-09T18:01:04.066Z,100687.56
2023-05-09T18:04:06.696Z,100691.00
2023-05-09T18:07:10.668Z,100686.75
2023-05-09T18:10:13.540Z,100691.72
2023-05-09T18:13:17.042Z,100680.75
2023-05-09T18:16:19.782Z,100691.13
2023-05-09T18:19:22.393Z,100687.06
2023-05-09T18:22:26.434Z,100677.75
2023-05-09T18:25:29.130Z,100683.72
2023-05-09T18:28:38.954Z,100674.09
2023-05-09T18:31:41.756Z,100681.44
2023-05-09T18:34:44.761Z,100680.44
2023-05-09T18:37:48.682Z,100677.38
2023-05-09T18:40:52.202Z,100678.84
2023-05-09T18:43:56.307Z,100684.09
2023-05-09T18:46:59.023Z,100676.66
2023-05-09T18:50:12.687Z,100680.47
2023-05-09T18:53:16.849Z,100681.13
2023-05-09T18:56:20.355Z,100684.66
2023-05-09T18:59:23.504Z,100684.03
2023-05-09T19:02:26.576Z,100674.84
2023-05-09T19:05:29.561Z,100672.97
2023-05-09T19:08:33.547Z,100675.47
2023-05-09T19:11:36.208Z,100676.75
2023-05-09T19:14:38.856Z,100679.91
2023-05-09T19:17:41.478Z,100686.00
2023-05-09T19:20:44.149Z,100677.44
2023-05-09T19:23:49.152Z,100682.72
2023-05-09T19:26:51.750Z,100679.75
2023-05-09T19:29:54.342Z,100673.47
2023-05-09T19:32:57.146Z,100668.38
2023-05-09T19:35:59.786Z,100671.59
2023-05-09T19:39:05.156Z,100667.16
2023-05-09T19:42:07.980Z,100665.44
2023-05-09T19:45:11.396Z,100667.56
2023-05-09T19:48:15.725Z,100670.59
2023-05-09T19:51:18.408Z,100676.19
2023-05-09T19:54:24.648Z,100668.56
2023-05-09T19:57:27.237Z,100669.00
2023-05-09T20:00:29.846Z,100670.00
2023-05-09T20:03:33.289Z,100665.91
2023-05-09T20:06:36.031Z,100667.31
2023-05-09T20:09:39.992Z,100664.00
2023-05-09T20:12:43.368Z,100670.19
2023-05-09T20:15:46.025Z,100665.28
2023-05-09T20:18:50.668Z,100661.84
2023-05-09T20:21:54.608Z,100662.28
2023-05-09T20:24:58.560Z,100655.22
2023-05-09T20:28:01.159Z,100656.94
2023-05-09T20:31:03.754Z,100651.34
2023-05-09T20:34:10.464Z,100650.94
2023-05-09T20:37:13.100Z,100647.66
2023-05-09T20:40:17.336Z,100647.28
2023-05-09T20:43:20.479Z,100642.53
2023-05-09T20:46:23.070Z,100643.00
2023-05-09T20:49:26.955Z,100647.50
2023-05-09T20:52:29.569Z,100644.28
2023-05-09T20:55:33.543Z,100642.06
2023-05-09T20:58:36.132Z,100640.16
2023-05-09T21:01:40.193Z,100639.94
2023-05-09T21:04:42.882Z,100637.25
2023-05-09T21:07:45.444Z,100641.31
2023-05-09T21:10:52.193Z,100633.47
2023-05-09T21:13:54.753Z,100631.75
2023-05-09T21:16:58.087Z,100624.28
2023-05-09T21:20:00.718Z,100618.72
2023-05-09T21:23:03.270Z,100616.75
2023-05-09T21:26:07.345Z,100612.56
2023-05-09T21:29:09.919Z,100612.66
2023-05-09T21:32:12.602Z,100612.84
2023-05-09T21:35:15.553Z,100601.97
2023-05-09T21:38:18.213Z,100600.72
2023-05-09T21:41:22.145Z,100604.28
2023-05-09T21:44:25.093Z,100603.22
2023-05-09T21:47:27.886Z,100599.59
2023-05-09T21:50:30.632Z,100605.13
2023-05-09T21:53:33.201Z,100592.72
2023-05-09T21:56:37.137Z,100584.53
2023-05-09T21:59:39.865Z,100591.00
2023-05-09T22:02:42.912Z,100585.06
2023-05-09T22:05:45.795Z,100577.69
2023-05-09T22:08:48.398Z,100576.03
2023-05-09T22:11:52.996Z,100575.41
2023-05-09T22:14:56.911Z,100568.19
2023-05-09T22:17:59.733Z,100569.38
2023-05-09T22:21:02.403Z,100571.25
2023-05-09T22:24:05.621Z,100568.69
2023-05-09T22:27:10.040Z,100567.66
2023-05-09T22:30:13.241Z,100562.00
2023-05-09T22:33:15.947Z,100564.31
2023-05-09T22:36:18.570Z,100565.97
2023-05-09T22:39:21.812Z,100568.91
2023-05-09T22:42:25.886Z,100556.78
2023-05-09T22:45:28.508Z,100561.53
2023-05-09T22:48:31.110Z,100554.69
2023-05-09T22:51:34.074Z,100556.47
2023-05-09T22:54:36.665Z,100551.50
2023-05-09T22:57:41.466Z,100550.19
2023-05-09T23:00:44.062Z,100551.72
2023-05-09T23:03:46.743Z,100547.34
2023-05-09T23:06:49.382Z,100546.91
2023-05-09T23:09:51.990Z,100537.75
2023-05-09T23:12:55.990Z,100548.44
2023-05-09T23:15:58.644Z,100540.75
2023-05-09T23:19:01.247Z,100531.38
2023-05-09T23:22:04.469Z,100525.06
2023-05-09T23:25:08.624Z,100528.19
2023-05-09T23:28:12.562Z,100519.16
2023-05-09T23:31:15.163Z,100514.09
2023-05-09T23:34:18.018Z,100516.06
2023-05-09T23:37:21.123Z,100514.03
2023-05-09T23:40:23.883Z,100510.34
2023-05-09T23:43:28.764Z,100510.19
2023-05-09T23:46:31.581Z,100500.28
2023-05-09T23:49:34.181Z,100505.78
2023-05-09T23:52:36.780Z,100501.75
2023-05-09T23:55:39.386Z,100499.94
2023-05-09T23:58:43.377Z,100494.31
